sensor_id;sensor_type;location;lat;lon;timestamp;P1;durP1;ratioP1;P2;durP2;ratioP2
14892;SDS011;7538;53.626;9.906;2022-10-15T00:01:35;44.65;;;23.13;;
14892;SDS011;7538;53.626;9.906;2022-10-15T00:04:03;77.88;;;28.73;;
14892;SDS011;7538;53.626;9.906;2022-10-15T00:06:30;67.80;;;26.63;;
14892;SDS011;7538;53.626;9.906;2022-10-15T00:08:59;71.32;;;27.60;;
14892;SDS011;7538;53.626;9.906;2022-10-15T00:11:26;74.60;;;26.98;;
14892;SDS011;7538;53.626;9.906;2022-10-15T00:13:54;33.17;;;21.48;;
14892;SDS011;7538;53.626;9.906;2022-10-15T00:16:23;63.47;;;28.52;;
14892;SDS011;7538;53.626;9.906;2022-10-15T00:18:53;51.20;;;23.10;;
14892;SDS011;7538;53.626;9.906;2022-10-15T00:21:21;85.72;;;29.35;;
14892;SDS011;7538;53.626;9.906;2022-10-15T00:23:48;56.30;;;25.85;;
14892;SDS011;7538;53.626;9.906;2022-10-15T00:26:17;73.97;;;29.13;;
14892;SDS011;7538;53.626;9.906;2022-10-15T00:28:45;48.95;;;24.58;;
14892;SDS011;7538;53.626;9.906;2022-10-15T00:31:15;56.08;;;25.48;;
14892;SDS011;7538;53.626;9.906;2022-10-15T00:33:44;42.58;;;23.02;;
14892;SDS011;7538;53.626;9.906;2022-10-15T00:36:11;63.50;;;28.50;;
14892;SDS011;7538;53.626;9.906;2022-10-15T00:38:39;45.75;;;24.65;;
14892;SDS011;7538;53.626;9.906;2022-10-15T00:41:06;85.65;;;31.42;;
14892;SDS011;7538;53.626;9.906;2022-10-15T00:43:40;38.03;;;23.20;;
14892;SDS011;7538;53.626;9.906;2022-10-15T00:46:15;69.10;;;28.05;;
14892;SDS011;7538;53.626;9.906;2022-10-15T00:48:45;55.35;;;25.15;;
14892;SDS011;7538;53.626;9.906;2022-10-15T00:51:15;55.78;;;26.17;;
14892;SDS011;7538;53.626;9.906;2022-10-15T00:53:44;70.78;;;29.13;;
14892;SDS011;7538;53.626;9.906;2022-10-15T00:56:12;94.13;;;34.00;;
14892;SDS011;7538;53.626;9.906;2022-10-15T00:58:42;76.75;;;30.10;;
14892;SDS011;7538;53.626;9.906;2022-10-15T01:01:09;56.03;;;28.95;;
14892;SDS011;7538;53.626;9.906;2022-10-15T01:03:36;51.83;;;26.33;;
14892;SDS011;7538;53.626;9.906;2022-10-15T01:06:03;53.90;;;27.45;;
14892;SDS011;7538;53.626;9.906;2022-10-15T01:08:30;62.33;;;31.05;;
14892;SDS011;7538;53.626;9.906;2022-10-15T01:10:59;55.92;;;28.33;;
14892;SDS011;7538;53.626;9.906;2022-10-15T01:13:41;51.65;;;28.98;;
14892;SDS011;7538;53.626;9.906;2022-10-15T01:16:21;74.38;;;32.95;;
14892;SDS011;7538;53.626;9.906;2022-10-15T01:18:55;90.22;;;36.28;;
14892;SDS011;7538;53.626;9.906;2022-10-15T01:21:27;75.55;;;32.05;;
14892;SDS011;7538;53.626;9.906;2022-10-15T01:27:16;110.28;;;36.42;;
14892;SDS011;7538;53.626;9.906;2022-10-15T01:35:50;75.85;;;32.22;;
14892;SDS011;7538;53.626;9.906;2022-10-15T01:38:21;73.15;;;33.50;;
14892;SDS011;7538;53.626;9.906;2022-10-15T01:40:58;90.53;;;34.42;;
14892;SDS011;7538;53.626;9.906;2022-10-15T01:43:32;68.85;;;32.65;;
14892;SDS011;7538;53.626;9.906;2022-10-15T01:46:05;121.95;;;41.45;;
14892;SDS011;7538;53.626;9.906;2022-10-15T01:48:36;59.55;;;31.08;;
14892;SDS011;7538;53.626;9.906;2022-10-15T01:51:05;71.05;;;28.90;;
14892;SDS011;7538;53.626;9.906;2022-10-15T01:53:32;79.50;;;34.63;;
14892;SDS011;7538;53.626;9.906;2022-10-15T01:56:02;89.40;;;35.00;;
14892;SDS011;7538;53.626;9.906;2022-10-15T01:58:31;76.15;;;32.28;;
14892;SDS011;7538;53.626;9.906;2022-10-15T02:01:00;64.43;;;31.67;;
14892;SDS011;7538;53.626;9.906;2022-10-15T02:03:28;76.97;;;31.95;;
14892;SDS011;7538;53.626;9.906;2022-10-15T02:05:55;111.40;;;40.90;;
14892;SDS011;7538;53.626;9.906;2022-10-15T02:08:29;85.50;;;34.53;;
14892;SDS011;7538;53.626;9.906;2022-10-15T02:11:04;85.78;;;33.78;;
14892;SDS011;7538;53.626;9.906;2022-10-15T02:13:34;66.95;;;31.98;;
14892;SDS011;7538;53.626;9.906;2022-10-15T02:16:10;82.70;;;33.72;;
14892;SDS011;7538;53.626;9.906;2022-10-15T02:18:45;98.70;;;36.53;;
14892;SDS011;7538;53.626;9.906;2022-10-15T02:21:19;98.60;;;37.67;;
14892;SDS011;7538;53.626;9.906;2022-10-15T02:23:52;91.13;;;37.75;;
14892;SDS011;7538;53.626;9.906;2022-10-15T02:26:24;95.28;;;36.78;;
14892;SDS011;7538;53.626;9.906;2022-10-15T02:28:53;86.45;;;35.33;;
14892;SDS011;7538;53.626;9.906;2022-10-15T02:31:22;142.43;;;43.38;;
14892;SDS011;7538;53.626;9.906;2022-10-15T02:33:52;147.05;;;43.65;;
14892;SDS011;7538;53.626;9.906;2022-10-15T02:36:23;127.18;;;43.67;;
14892;SDS011;7538;53.626;9.906;2022-10-15T02:38:50;78.40;;;35.30;;
14892;SDS011;7538;53.626;9.906;2022-10-15T02:41:19;98.30;;;39.33;;
14892;SDS011;7538;53.626;9.906;2022-10-15T02:43:46;109.00;;;40.97;;
14892;SDS011;7538;53.626;9.906;2022-10-15T02:46:14;93.90;;;37.45;;
14892;SDS011;7538;53.626;9.906;2022-10-15T02:48:42;93.88;;;37.78;;
14892;SDS011;7538;53.626;9.906;2022-10-15T02:51:10;79.80;;;35.38;;
14892;SDS011;7538;53.626;9.906;2022-10-15T02:53:37;90.78;;;35.08;;
14892;SDS011;7538;53.626;9.906;2022-10-15T02:56:03;143.43;;;46.15;;
14892;SDS011;7538;53.626;9.906;2022-10-15T02:58:30;129.15;;;41.92;;
14892;SDS011;7538;53.626;9.906;2022-10-15T03:00:57;101.25;;;39.70;;
14892;SDS011;7538;53.626;9.906;2022-10-15T03:03:24;100.78;;;37.80;;
14892;SDS011;7538;53.626;9.906;2022-10-15T03:05:51;86.57;;;37.08;;
14892;SDS011;7538;53.626;9.906;2022-10-15T03:08:19;103.53;;;42.47;;
14892;SDS011;7538;53.626;9.906;2022-10-15T03:10:46;94.97;;;38.95;;
14892;SDS011;7538;53.626;9.906;2022-10-15T03:13:12;76.13;;;34.13;;
14892;SDS011;7538;53.626;9.906;2022-10-15T03:15:39;82.68;;;36.58;;
14892;SDS011;7538;53.626;9.906;2022-10-15T03:18:06;75.32;;;34.28;;
14892;SDS011;7538;53.626;9.906;2022-10-15T03:20:33;108.38;;;40.45;;
14892;SDS011;7538;53.626;9.906;2022-10-15T03:23:00;150.75;;;46.25;;
14892;SDS011;7538;53.626;9.906;2022-10-15T03:25:28;106.80;;;40.60;;
14892;SDS011;7538;53.626;9.906;2022-10-15T03:27:55;85.72;;;36.25;;
14892;SDS011;7538;53.626;9.906;2022-10-15T03:30:22;74.63;;;33.90;;
14892;SDS011;7538;53.626;9.906;2022-10-15T03:32:49;67.72;;;32.13;;
14892;SDS011;7538;53.626;9.906;2022-10-15T03:35:16;62.92;;;30.27;;
14892;SDS011;7538;53.626;9.906;2022-10-15T03:37:42;59.92;;;28.45;;
14892;SDS011;7538;53.626;9.906;2022-10-15T03:40:09;53.47;;;26.42;;
14892;SDS011;7538;53.626;9.906;2022-10-15T03:42:38;76.07;;;31.38;;
14892;SDS011;7538;53.626;9.906;2022-10-15T03:45:05;127.68;;;40.22;;
14892;SDS011;7538;53.626;9.906;2022-10-15T03:47:33;72.43;;;31.20;;
14892;SDS011;7538;53.626;9.906;2022-10-15T03:50:00;89.07;;;33.47;;
14892;SDS011;7538;53.626;9.906;2022-10-15T03:52:27;113.68;;;36.22;;
14892;SDS011;7538;53.626;9.906;2022-10-15T03:54:53;73.55;;;32.78;;
14892;SDS011;7538;53.626;9.906;2022-10-15T03:57:20;102.28;;;34.47;;
14892;SDS011;7538;53.626;9.906;2022-10-15T03:59:48;78.07;;;30.73;;
14892;SDS011;7538;53.626;9.906;2022-10-15T04:02:15;89.65;;;32.90;;
14892;SDS011;7538;53.626;9.906;2022-10-15T04:04:42;138.48;;;41.28;;
14892;SDS011;7538;53.626;9.906;2022-10-15T04:07:08;79.20;;;31.75;;
14892;SDS011;7538;53.626;9.906;2022-10-15T04:09:35;60.40;;;28.58;;
14892;SDS011;7538;53.626;9.906;2022-10-15T04:12:02;92.10;;;37.42;;
14892;SDS011;7538;53.626;9.906;2022-10-15T04:14:29;103.28;;;36.40;;
14892;SDS011;7538;53.626;9.906;2022-10-15T04:16:57;138.10;;;40.53;;
14892;SDS011;7538;53.626;9.906;2022-10-15T04:19:24;97.57;;;34.90;;
14892;SDS011;7538;53.626;9.906;2022-10-15T04:21:51;70.32;;;29.75;;
14892;SDS011;7538;53.626;9.906;2022-10-15T04:24:17;66.80;;;29.67;;
14892;SDS011;7538;53.626;9.906;2022-10-15T04:26:44;89.47;;;32.75;;
14892;SDS011;7538;53.626;9.906;2022-10-15T04:29:11;108.13;;;36.58;;
14892;SDS011;7538;53.626;9.906;2022-10-15T04:31:38;77.78;;;30.10;;
14892;SDS011;7538;53.626;9.906;2022-10-15T04:34:07;90.40;;;32.33;;
14892;SDS011;7538;53.626;9.906;2022-10-15T04:36:34;79.57;;;33.10;;
14892;SDS011;7538;53.626;9.906;2022-10-15T04:39:01;73.95;;;32.15;;
14892;SDS011;7538;53.626;9.906;2022-10-15T04:41:29;187.27;;;46.63;;
14892;SDS011;7538;53.626;9.906;2022-10-15T04:49:08;142.10;;;41.70;;
14892;SDS011;7538;53.626;9.906;2022-10-15T04:51:34;98.18;;;36.78;;
14892;SDS011;7538;53.626;9.906;2022-10-15T04:54:01;133.90;;;41.88;;
14892;SDS011;7538;53.626;9.906;2022-10-15T04:56:28;125.70;;;39.83;;
14892;SDS011;7538;53.626;9.906;2022-10-15T04:58:55;92.53;;;35.58;;
14892;SDS011;7538;53.626;9.906;2022-10-15T05:01:22;228.25;;;50.60;;
14892;SDS011;7538;53.626;9.906;2022-10-15T05:03:49;164.23;;;44.75;;
14892;SDS011;7538;53.626;9.906;2022-10-15T05:09:39;126.68;;;40.13;;
14892;SDS011;7538;53.626;9.906;2022-10-15T05:12:06;114.80;;;38.35;;
14892;SDS011;7538;53.626;9.906;2022-10-15T05:14:33;227.32;;;51.55;;
14892;SDS011;7538;53.626;9.906;2022-10-15T05:17:00;126.07;;;38.45;;
14892;SDS011;7538;53.626;9.906;2022-10-15T05:19:27;103.03;;;36.47;;
14892;SDS011;7538;53.626;9.906;2022-10-15T05:21:54;179.68;;;45.20;;
14892;SDS011;7538;53.626;9.906;2022-10-15T05:24:21;164.95;;;43.85;;
14892;SDS011;7538;53.626;9.906;2022-10-15T05:26:49;184.10;;;45.20;;
14892;SDS011;7538;53.626;9.906;2022-10-15T05:29:20;93.65;;;35.30;;
14892;SDS011;7538;53.626;9.906;2022-10-15T05:31:48;139.18;;;40.50;;
14892;SDS011;7538;53.626;9.906;2022-10-15T05:34:15;127.88;;;42.38;;
14892;SDS011;7538;53.626;9.906;2022-10-15T05:36:42;115.78;;;36.80;;
14892;SDS011;7538;53.626;9.906;2022-10-15T05:39:09;109.70;;;37.10;;
14892;SDS011;7538;53.626;9.906;2022-10-15T05:41:36;163.57;;;43.90;;
14892;SDS011;7538;53.626;9.906;2022-10-15T05:44:04;76.63;;;34.38;;
14892;SDS011;7538;53.626;9.906;2022-10-15T05:46:32;137.77;;;39.55;;
14892;SDS011;7538;53.626;9.906;2022-10-15T05:48:58;93.50;;;35.63;;
14892;SDS011;7538;53.626;9.906;2022-10-15T05:51:25;111.68;;;36.72;;
14892;SDS011;7538;53.626;9.906;2022-10-15T05:53:53;182.73;;;45.08;;
14892;SDS011;7538;53.626;9.906;2022-10-15T06:03:05;85.15;;;35.60;;
14892;SDS011;7538;53.626;9.906;2022-10-15T06:05:32;116.10;;;38.30;;
14892;SDS011;7538;53.626;9.906;2022-10-15T06:07:58;137.63;;;42.30;;
14892;SDS011;7538;53.626;9.906;2022-10-15T06:10:25;94.05;;;33.65;;
14892;SDS011;7538;53.626;9.906;2022-10-15T06:16:11;107.00;;;38.15;;
14892;SDS011;7538;53.626;9.906;2022-10-15T06:18:40;117.72;;;41.33;;
14892;SDS011;7538;53.626;9.906;2022-10-15T06:21:07;192.35;;;51.60;;
14892;SDS011;7538;53.626;9.906;2022-10-15T06:23:35;95.55;;;39.45;;
14892;SDS011;7538;53.626;9.906;2022-10-15T06:26:02;148.10;;;43.83;;
14892;SDS011;7538;53.626;9.906;2022-10-15T06:28:30;141.00;;;44.65;;
14892;SDS011;7538;53.626;9.906;2022-10-15T06:30:58;164.70;;;47.58;;
14892;SDS011;7538;53.626;9.906;2022-10-15T06:33:26;104.65;;;40.40;;
14892;SDS011;7538;53.626;9.906;2022-10-15T06:35:54;121.72;;;42.22;;
14892;SDS011;7538;53.626;9.906;2022-10-15T06:38:25;149.80;;;45.55;;
14892;SDS011;7538;53.626;9.906;2022-10-15T06:40:52;163.73;;;48.28;;
14892;SDS011;7538;53.626;9.906;2022-10-15T06:43:19;100.85;;;42.22;;
14892;SDS011;7538;53.626;9.906;2022-10-15T06:45:46;134.80;;;44.90;;
14892;SDS011;7538;53.626;9.906;2022-10-15T06:48:12;102.13;;;40.78;;
14892;SDS011;7538;53.626;9.906;2022-10-15T06:50:39;104.10;;;40.92;;
14892;SDS011;7538;53.626;9.906;2022-10-15T06:53:07;163.05;;;49.53;;
14892;SDS011;7538;53.626;9.906;2022-10-15T06:58:40;108.68;;;40.55;;
14892;SDS011;7538;53.626;9.906;2022-10-15T07:03:58;108.65;;;38.90;;
14892;SDS011;7538;53.626;9.906;2022-10-15T07:06:25;91.78;;;37.75;;
14892;SDS011;7538;53.626;9.906;2022-10-15T07:08:53;101.43;;;39.15;;
14892;SDS011;7538;53.626;9.906;2022-10-15T07:11:22;94.05;;;37.33;;
14892;SDS011;7538;53.626;9.906;2022-10-15T07:13:48;106.93;;;39.80;;
14892;SDS011;7538;53.626;9.906;2022-10-15T07:16:15;109.20;;;41.70;;
14892;SDS011;7538;53.626;9.906;2022-10-15T07:18:42;89.25;;;36.95;;
14892;SDS011;7538;53.626;9.906;2022-10-15T07:21:09;89.53;;;36.83;;
14892;SDS011;7538;53.626;9.906;2022-10-15T07:23:36;82.25;;;36.55;;
14892;SDS011;7538;53.626;9.906;2022-10-15T07:26:04;92.05;;;38.80;;
14892;SDS011;7538;53.626;9.906;2022-10-15T07:28:31;78.30;;;35.60;;
14892;SDS011;7538;53.626;9.906;2022-10-15T07:30:59;78.20;;;35.55;;
14892;SDS011;7538;53.626;9.906;2022-10-15T07:33:27;74.28;;;33.88;;
14892;SDS011;7538;53.626;9.906;2022-10-15T07:35:53;73.93;;;34.97;;
14892;SDS011;7538;53.626;9.906;2022-10-15T07:38:20;75.82;;;34.53;;
14892;SDS011;7538;53.626;9.906;2022-10-15T07:40:47;67.65;;;33.13;;
14892;SDS011;7538;53.626;9.906;2022-10-15T07:43:15;62.13;;;32.10;;
14892;SDS011;7538;53.626;9.906;2022-10-15T07:45:45;69.03;;;33.10;;
14892;SDS011;7538;53.626;9.906;2022-10-15T07:48:14;61.08;;;31.23;;
14892;SDS011;7538;53.626;9.906;2022-10-15T07:50:41;63.03;;;30.88;;
14892;SDS011;7538;53.626;9.906;2022-10-15T07:53:07;57.88;;;29.67;;
14892;SDS011;7538;53.626;9.906;2022-10-15T07:55:34;52.05;;;28.33;;
14892;SDS011;7538;53.626;9.906;2022-10-15T07:58:02;55.83;;;31.27;;
14892;SDS011;7538;53.626;9.906;2022-10-15T08:00:33;50.42;;;27.92;;
14892;SDS011;7538;53.626;9.906;2022-10-15T08:03:00;49.70;;;27.90;;
14892;SDS011;7538;53.626;9.906;2022-10-15T08:05:27;49.53;;;29.58;;
14892;SDS011;7538;53.626;9.906;2022-10-15T08:07:53;43.45;;;27.88;;
14892;SDS011;7538;53.626;9.906;2022-10-15T08:10:20;40.05;;;25.33;;
14892;SDS011;7538;53.626;9.906;2022-10-15T08:12:47;33.80;;;23.38;;
14892;SDS011;7538;53.626;9.906;2022-10-15T08:15:14;32.33;;;22.05;;
14892;SDS011;7538;53.626;9.906;2022-10-15T08:17:42;34.53;;;22.73;;
14892;SDS011;7538;53.626;9.906;2022-10-15T08:20:09;31.05;;;22.33;;
14892;SDS011;7538;53.626;9.906;2022-10-15T08:22:37;30.20;;;22.05;;
14892;SDS011;7538;53.626;9.906;2022-10-15T08:25:04;30.63;;;21.80;;
14892;SDS011;7538;53.626;9.906;2022-10-15T08:27:31;28.10;;;21.27;;
14892;SDS011;7538;53.626;9.906;2022-10-15T08:29:57;32.15;;;21.95;;
14892;SDS011;7538;53.626;9.906;2022-10-15T08:32:24;29.48;;;20.10;;
14892;SDS011;7538;53.626;9.906;2022-10-15T08:34:52;27.60;;;21.90;;
14892;SDS011;7538;53.626;9.906;2022-10-15T08:37:19;28.13;;;20.42;;
14892;SDS011;7538;53.626;9.906;2022-10-15T08:39:46;28.08;;;19.10;;
14892;SDS011;7538;53.626;9.906;2022-10-15T08:42:13;26.08;;;21.42;;
14892;SDS011;7538;53.626;9.906;2022-10-15T08:44:45;31.27;;;21.92;;
14892;SDS011;7538;53.626;9.906;2022-10-15T08:47:20;26.58;;;19.70;;
14892;SDS011;7538;53.626;9.906;2022-10-15T08:49:55;25.73;;;19.27;;
14892;SDS011;7538;53.626;9.906;2022-10-15T08:52:24;23.67;;;18.85;;
14892;SDS011;7538;53.626;9.906;2022-10-15T08:55:12;25.00;;;19.20;;
14892;SDS011;7538;53.626;9.906;2022-10-15T08:57:42;21.67;;;17.38;;
14892;SDS011;7538;53.626;9.906;2022-10-15T09:00:17;23.65;;;17.92;;
14892;SDS011;7538;53.626;9.906;2022-10-15T09:02:51;20.63;;;16.58;;
14892;SDS011;7538;53.626;9.906;2022-10-15T09:05:29;19.45;;;15.65;;
14892;SDS011;7538;53.626;9.906;2022-10-15T09:08:06;17.63;;;14.90;;
14892;SDS011;7538;53.626;9.906;2022-10-15T09:10:42;19.35;;;15.63;;
14892;SDS011;7538;53.626;9.906;2022-10-15T09:13:13;21.75;;;16.58;;
14892;SDS011;7538;53.626;9.906;2022-10-15T09:15:47;18.30;;;15.18;;
14892;SDS011;7538;53.626;9.906;2022-10-15T09:18:18;19.13;;;15.95;;
14892;SDS011;7538;53.626;9.906;2022-10-15T09:20:49;17.00;;;14.85;;
14892;SDS011;7538;53.626;9.906;2022-10-15T09:29:43;19.55;;;16.30;;
14892;SDS011;7538;53.626;9.906;2022-10-15T09:32:36;22.58;;;17.42;;
14892;SDS011;7538;53.626;9.906;2022-10-15T09:42:25;20.77;;;15.43;;
14892;SDS011;7538;53.626;9.906;2022-10-15T09:44:56;18.83;;;16.10;;
14892;SDS011;7538;53.626;9.906;2022-10-15T09:47:25;20.77;;;14.27;;
14892;SDS011;7538;53.626;9.906;2022-10-15T09:50:07;17.17;;;13.93;;
14892;SDS011;7538;53.626;9.906;2022-10-15T09:55:29;18.48;;;14.88;;
14892;SDS011;7538;53.626;9.906;2022-10-15T09:58:08;17.42;;;14.15;;
14892;SDS011;7538;53.626;9.906;2022-10-15T10:00:50;17.60;;;13.93;;
14892;SDS011;7538;53.626;9.906;2022-10-15T10:03:22;19.95;;;14.23;;
14892;SDS011;7538;53.626;9.906;2022-10-15T10:05:50;18.65;;;14.57;;
14892;SDS011;7538;53.626;9.906;2022-10-15T10:08:33;16.48;;;13.80;;
14892;SDS011;7538;53.626;9.906;2022-10-15T10:11:04;19.20;;;15.45;;
14892;SDS011;7538;53.626;9.906;2022-10-15T10:13:38;20.77;;;15.32;;
14892;SDS011;7538;53.626;9.906;2022-10-15T10:16:10;22.55;;;15.85;;
14892;SDS011;7538;53.626;9.906;2022-10-15T10:18:38;22.45;;;15.75;;
14892;SDS011;7538;53.626;9.906;2022-10-15T10:21:19;20.23;;;14.05;;
14892;SDS011;7538;53.626;9.906;2022-10-15T10:23:47;18.15;;;12.63;;
14892;SDS011;7538;53.626;9.906;2022-10-15T10:26:14;20.02;;;13.55;;
14892;SDS011;7538;53.626;9.906;2022-10-15T10:29:19;15.65;;;11.90;;
14892;SDS011;7538;53.626;9.906;2022-10-15T10:31:47;18.60;;;11.88;;
14892;SDS011;7538;53.626;9.906;2022-10-15T10:34:17;15.80;;;12.45;;
14892;SDS011;7538;53.626;9.906;2022-10-15T10:36:51;19.42;;;13.60;;
14892;SDS011;7538;53.626;9.906;2022-10-15T10:39:20;19.83;;;12.93;;
14892;SDS011;7538;53.626;9.906;2022-10-15T10:42:08;19.98;;;12.93;;
14892;SDS011;7538;53.626;9.906;2022-10-15T10:45:13;16.35;;;12.38;;
14892;SDS011;7538;53.626;9.906;2022-10-15T10:47:44;17.27;;;12.18;;
14892;SDS011;7538;53.626;9.906;2022-10-15T10:53:36;17.33;;;11.10;;
14892;SDS011;7538;53.626;9.906;2022-10-15T10:56:09;12.88;;;9.07;;
14892;SDS011;7538;53.626;9.906;2022-10-15T10:58:37;13.45;;;9.38;;
14892;SDS011;7538;53.626;9.906;2022-10-15T11:01:08;12.23;;;8.60;;
14892;SDS011;7538;53.626;9.906;2022-10-15T11:03:37;12.05;;;8.25;;
14892;SDS011;7538;53.626;9.906;2022-10-15T11:06:11;9.75;;;7.28;;
14892;SDS011;7538;53.626;9.906;2022-10-15T11:08:54;11.45;;;7.38;;
14892;SDS011;7538;53.626;9.906;2022-10-15T11:11:28;9.63;;;7.30;;
14892;SDS011;7538;53.626;9.906;2022-10-15T11:14:04;8.77;;;6.63;;
14892;SDS011;7538;53.626;9.906;2022-10-15T11:16:43;8.20;;;5.35;;
14892;SDS011;7538;53.626;9.906;2022-10-15T11:19:22;7.10;;;5.38;;
14892;SDS011;7538;53.626;9.906;2022-10-15T11:22:02;10.32;;;5.97;;
14892;SDS011;7538;53.626;9.906;2022-10-15T11:24:42;9.02;;;6.32;;
14892;SDS011;7538;53.626;9.906;2022-10-15T11:27:16;9.98;;;6.57;;
14892;SDS011;7538;53.626;9.906;2022-10-15T11:29:54;9.70;;;5.93;;
14892;SDS011;7538;53.626;9.906;2022-10-15T11:32:36;12.25;;;6.53;;
14892;SDS011;7538;53.626;9.906;2022-10-15T11:35:23;7.22;;;5.45;;
14892;SDS011;7538;53.626;9.906;2022-10-15T11:37:59;8.00;;;5.20;;
14892;SDS011;7538;53.626;9.906;2022-10-15T11:40:36;8.73;;;5.32;;
14892;SDS011;7538;53.626;9.906;2022-10-15T11:43:12;6.07;;;4.65;;
14892;SDS011;7538;53.626;9.906;2022-10-15T11:45:51;6.05;;;5.03;;
14892;SDS011;7538;53.626;9.906;2022-10-15T11:48:29;6.65;;;4.63;;
14892;SDS011;7538;53.626;9.906;2022-10-15T11:51:08;7.35;;;4.35;;
14892;SDS011;7538;53.626;9.906;2022-10-15T11:53:49;6.40;;;4.15;;
14892;SDS011;7538;53.626;9.906;2022-10-15T11:56:37;5.63;;;4.15;;
14892;SDS011;7538;53.626;9.906;2022-10-15T11:59:12;4.65;;;3.88;;
14892;SDS011;7538;53.626;9.906;2022-10-15T12:01:45;4.63;;;3.25;;
14892;SDS011;7538;53.626;9.906;2022-10-15T12:04:17;4.60;;;3.22;;
14892;SDS011;7538;53.626;9.906;2022-10-15T12:06:50;5.40;;;3.60;;
14892;SDS011;7538;53.626;9.906;2022-10-15T12:09:19;4.30;;;3.65;;
14892;SDS011;7538;53.626;9.906;2022-10-15T12:11:52;5.43;;;4.10;;
14892;SDS011;7538;53.626;9.906;2022-10-15T12:14:26;7.53;;;4.10;;
14892;SDS011;7538;53.626;9.906;2022-10-15T12:17:01;7.03;;;4.63;;
14892;SDS011;7538;53.626;9.906;2022-10-15T12:19:36;4.43;;;4.03;;
14892;SDS011;7538;53.626;9.906;2022-10-15T12:22:08;5.20;;;4.32;;
14892;SDS011;7538;53.626;9.906;2022-10-15T12:24:49;5.88;;;3.60;;
14892;SDS011;7538;53.626;9.906;2022-10-15T12:27:24;8.82;;;4.45;;
14892;SDS011;7538;53.626;9.906;2022-10-15T12:30:10;8.07;;;4.88;;
14892;SDS011;7538;53.626;9.906;2022-10-15T12:32:52;7.93;;;3.83;;
14892;SDS011;7538;53.626;9.906;2022-10-15T12:35:22;5.47;;;4.47;;
14892;SDS011;7538;53.626;9.906;2022-10-15T12:37:54;5.78;;;4.38;;
14892;SDS011;7538;53.626;9.906;2022-10-15T12:40:33;6.50;;;3.78;;
14892;SDS011;7538;53.626;9.906;2022-10-15T12:43:04;6.55;;;4.35;;
14892;SDS011;7538;53.626;9.906;2022-10-15T12:45:39;8.38;;;4.63;;
14892;SDS011;7538;53.626;9.906;2022-10-15T12:48:18;5.80;;;3.80;;
14892;SDS011;7538;53.626;9.906;2022-10-15T12:54:16;5.40;;;4.43;;
14892;SDS011;7538;53.626;9.906;2022-10-15T12:57:01;6.65;;;4.20;;
14892;SDS011;7538;53.626;9.906;2022-10-15T13:04:59;5.95;;;4.50;;
14892;SDS011;7538;53.626;9.906;2022-10-15T13:07:26;6.05;;;4.85;;
14892;SDS011;7538;53.626;9.906;2022-10-15T13:09:54;4.90;;;4.32;;
14892;SDS011;7538;53.626;9.906;2022-10-15T13:12:22;6.50;;;4.65;;
14892;SDS011;7538;53.626;9.906;2022-10-15T13:14:54;7.13;;;4.95;;
14892;SDS011;7538;53.626;9.906;2022-10-15T13:17:24;9.07;;;4.70;;
14892;SDS011;7538;53.626;9.906;2022-10-15T13:19:55;7.65;;;5.43;;
14892;SDS011;7538;53.626;9.906;2022-10-15T13:22:24;7.57;;;5.50;;
14892;SDS011;7538;53.626;9.906;2022-10-15T13:24:52;5.82;;;5.20;;
14892;SDS011;7538;53.626;9.906;2022-10-15T13:27:22;6.35;;;4.90;;
14892;SDS011;7538;53.626;9.906;2022-10-15T13:29:57;7.95;;;5.18;;
14892;SDS011;7538;53.626;9.906;2022-10-15T13:32:25;6.82;;;5.10;;
14892;SDS011;7538;53.626;9.906;2022-10-15T13:34:54;5.43;;;4.70;;
14892;SDS011;7538;53.626;9.906;2022-10-15T13:37:23;6.38;;;5.00;;
14892;SDS011;7538;53.626;9.906;2022-10-15T13:39:56;7.00;;;4.45;;
14892;SDS011;7538;53.626;9.906;2022-10-15T13:42:25;5.55;;;4.93;;
14892;SDS011;7538;53.626;9.906;2022-10-15T13:44:55;6.68;;;5.60;;
14892;SDS011;7538;53.626;9.906;2022-10-15T13:47:26;6.63;;;4.68;;
14892;SDS011;7538;53.626;9.906;2022-10-15T13:50:10;6.28;;;5.13;;
14892;SDS011;7538;53.626;9.906;2022-10-15T13:52:49;8.07;;;5.28;;
14892;SDS011;7538;53.626;9.906;2022-10-15T13:58:42;8.20;;;6.03;;
14892;SDS011;7538;53.626;9.906;2022-10-15T14:01:13;7.70;;;6.45;;
14892;SDS011;7538;53.626;9.906;2022-10-15T14:03:45;6.80;;;5.15;;
14892;SDS011;7538;53.626;9.906;2022-10-15T14:06:15;10.05;;;6.70;;
14892;SDS011;7538;53.626;9.906;2022-10-15T14:08:43;7.72;;;6.20;;
14892;SDS011;7538;53.626;9.906;2022-10-15T14:11:11;7.38;;;6.40;;
14892;SDS011;7538;53.626;9.906;2022-10-15T14:13:43;10.45;;;8.57;;
14892;SDS011;7538;53.626;9.906;2022-10-15T14:16:12;12.15;;;8.88;;
14892;SDS011;7538;53.626;9.906;2022-10-15T14:18:44;9.93;;;7.68;;
14892;SDS011;7538;53.626;9.906;2022-10-15T14:21:13;9.40;;;7.90;;
14892;SDS011;7538;53.626;9.906;2022-10-15T14:23:42;10.95;;;8.52;;
14892;SDS011;7538;53.626;9.906;2022-10-15T14:26:11;12.52;;;8.25;;
14892;SDS011;7538;53.626;9.906;2022-10-15T14:28:40;10.07;;;8.10;;
14892;SDS011;7538;53.626;9.906;2022-10-15T14:31:23;9.85;;;8.75;;
14892;SDS011;7538;53.626;9.906;2022-10-15T14:33:55;9.05;;;8.00;;
14892;SDS011;7538;53.626;9.906;2022-10-15T14:36:24;10.48;;;9.30;;
14892;SDS011;7538;53.626;9.906;2022-10-15T14:38:52;11.35;;;8.43;;
14892;SDS011;7538;53.626;9.906;2022-10-15T14:41:21;9.02;;;8.13;;
14892;SDS011;7538;53.626;9.906;2022-10-15T14:44:05;11.13;;;9.88;;
14892;SDS011;7538;53.626;9.906;2022-10-15T14:46:44;13.82;;;10.85;;
14892;SDS011;7538;53.626;9.906;2022-10-15T14:49:22;13.15;;;10.55;;
14892;SDS011;7538;53.626;9.906;2022-10-15T14:51:55;11.38;;;10.18;;
14892;SDS011;7538;53.626;9.906;2022-10-15T14:54:29;12.63;;;11.32;;
14892;SDS011;7538;53.626;9.906;2022-10-15T14:56:59;16.25;;;12.15;;
14892;SDS011;7538;53.626;9.906;2022-10-15T14:59:32;13.65;;;10.98;;
14892;SDS011;7538;53.626;9.906;2022-10-15T15:02:02;12.63;;;11.32;;
14892;SDS011;7538;53.626;9.906;2022-10-15T15:04:33;12.95;;;11.02;;
14892;SDS011;7538;53.626;9.906;2022-10-15T15:07:05;10.98;;;9.88;;
14892;SDS011;7538;53.626;9.906;2022-10-15T15:09:37;13.35;;;11.23;;
14892;SDS011;7538;53.626;9.906;2022-10-15T15:12:05;13.52;;;11.60;;
14892;SDS011;7538;53.626;9.906;2022-10-15T15:14:36;18.40;;;12.65;;
14892;SDS011;7538;53.626;9.906;2022-10-15T15:17:04;15.13;;;11.90;;
14892;SDS011;7538;53.626;9.906;2022-10-15T15:19:31;17.35;;;12.73;;
14892;SDS011;7538;53.626;9.906;2022-10-15T15:21:57;14.85;;;12.68;;
14892;SDS011;7538;53.626;9.906;2022-10-15T15:24:24;15.75;;;13.63;;
14892;SDS011;7538;53.626;9.906;2022-10-15T15:26:51;14.50;;;13.02;;
14892;SDS011;7538;53.626;9.906;2022-10-15T15:29:18;15.48;;;12.75;;
14892;SDS011;7538;53.626;9.906;2022-10-15T15:31:46;12.70;;;11.40;;
14892;SDS011;7538;53.626;9.906;2022-10-15T15:34:13;14.25;;;12.85;;
14892;SDS011;7538;53.626;9.906;2022-10-15T15:36:39;14.82;;;13.13;;
14892;SDS011;7538;53.626;9.906;2022-10-15T15:39:06;14.15;;;12.15;;
14892;SDS011;7538;53.626;9.906;2022-10-15T15:41:33;13.10;;;11.80;;
14892;SDS011;7538;53.626;9.906;2022-10-15T15:44:00;14.85;;;12.43;;
14892;SDS011;7538;53.626;9.906;2022-10-15T15:46:28;15.07;;;13.50;;
14892;SDS011;7538;53.626;9.906;2022-10-15T15:48:56;14.07;;;11.68;;
14892;SDS011;7538;53.626;9.906;2022-10-15T15:51:24;13.18;;;11.85;;
14892;SDS011;7538;53.626;9.906;2022-10-15T15:53:53;13.75;;;11.10;;
14892;SDS011;7538;53.626;9.906;2022-10-15T15:56:20;12.68;;;11.45;;
14892;SDS011;7538;53.626;9.906;2022-10-15T15:58:47;13.48;;;11.57;;
14892;SDS011;7538;53.626;9.906;2022-10-15T16:01:14;13.43;;;10.63;;
14892;SDS011;7538;53.626;9.906;2022-10-15T16:03:41;13.02;;;10.88;;